createdAt,value
2018-12-17T00:01:58.134Z,17.90
2018-12-17T00:04:25.614Z,16.90
2018-12-17T00:06:53.069Z,17.50
2018-12-17T00:09:20.564Z,17.90
2018-12-17T00:11:48.044Z,18.53
2018-12-17T00:14:15.476Z,17.83
2018-12-17T00:16:42.930Z,17.63
2018-12-17T00:19:10.372Z,16.57
2018-12-17T00:21:37.813Z,16.73
2018-12-17T00:24:05.261Z,16.67
2018-12-17T00:26:32.728Z,18.53
2018-12-17T00:29:00.189Z,20.83
2018-12-17T00:31:27.632Z,20.93
2018-12-17T00:33:55.098Z,19.73
2018-12-17T00:36:22.560Z,19.97
2018-12-17T00:38:50.013Z,19.33
2018-12-17T00:41:17.473Z,21.27
2018-12-17T00:43:45.438Z,18.93
2018-12-17T00:46:13.135Z,21.20
2018-12-17T00:48:40.641Z,20.27
2018-12-17T00:51:08.159Z,20.67
2018-12-17T00:53:35.665Z,20.30
2018-12-17T00:56:03.197Z,20.70
2018-12-17T00:58:30.635Z,21.10
2018-12-17T01:00:58.115Z,21.30
2018-12-17T01:03:25.563Z,19.60
2018-12-17T01:05:53.022Z,23.13
2018-12-17T01:08:20.550Z,27.83
2018-12-17T01:10:47.992Z,30.63
2018-12-17T01:13:15.467Z,27.13
2018-12-17T01:15:42.912Z,27.97
2018-12-17T01:18:10.411Z,26.83
2018-12-17T01:20:37.879Z,24.07
2018-12-17T01:23:05.405Z,22.50
2018-12-17T01:25:32.836Z,22.80
2018-12-17T01:28:00.311Z,20.03
2018-12-17T01:30:27.744Z,21.60
2018-12-17T01:32:55.489Z,19.37
2018-12-17T01:35:22.928Z,22.27
2018-12-17T01:37:50.385Z,22.60
2018-12-17T01:40:17.920Z,23.60
2018-12-17T01:42:45.383Z,23.53
2018-12-17T01:45:12.837Z,23.27
2018-12-17T01:47:40.299Z,21.77
2018-12-17T01:50:07.808Z,21.60
2018-12-17T01:52:35.260Z,21.53
2018-12-17T01:55:02.768Z,23.50
2018-12-17T01:57:30.216Z,21.67
2018-12-17T01:59:57.762Z,20.90
2018-12-17T02:02:25.244Z,21.83
2018-12-17T02:04:52.699Z,24.10
2018-12-17T02:07:20.164Z,25.27
2018-12-17T02:09:47.613Z,23.57
2018-12-17T02:12:15.075Z,23.40
2018-12-17T02:14:42.535Z,23.37
2018-12-17T02:17:09.998Z,22.57
2018-12-17T02:19:37.466Z,23.37
2018-12-17T02:22:04.913Z,23.87
2018-12-17T02:24:32.382Z,24.07
2018-12-17T02:26:59.820Z,21.80
2018-12-17T02:29:27.283Z,22.97
2018-12-17T02:31:54.721Z,22.33
2018-12-17T02:34:22.172Z,24.10
2018-12-17T02:36:49.678Z,23.53
2018-12-17T02:39:17.137Z,23.30
2018-12-17T02:41:44.588Z,23.60
2018-12-17T02:44:12.202Z,22.50
2018-12-17T02:46:39.694Z,23.10
2018-12-17T02:49:07.892Z,21.83
2018-12-17T02:51:37.297Z,26.80
2018-12-17T02:54:05.311Z,24.60
2018-12-17T02:56:32.755Z,23.50
2018-12-17T02:59:00.216Z,23.50
2018-12-17T03:01:27.652Z,26.67
2018-12-17T03:03:55.144Z,24.67
2018-12-17T03:06:22.617Z,23.20
2018-12-17T03:08:50.062Z,23.90
2018-12-17T03:11:17.620Z,22.27
2018-12-17T03:13:45.072Z,22.47
2018-12-17T03:16:12.543Z,19.87
2018-12-17T03:18:40.012Z,20.87
2018-12-17T03:21:07.485Z,20.10
2018-12-17T03:23:34.925Z,19.90
2018-12-17T03:26:02.424Z,19.80
2018-12-17T03:28:29.922Z,19.80
2018-12-17T03:30:57.401Z,18.40
2018-12-17T03:33:24.843Z,19.60
2018-12-17T03:35:52.327Z,18.60
2018-12-17T03:38:19.772Z,18.30
2018-12-17T03:40:47.269Z,18.67
2018-12-17T03:43:14.846Z,20.40
2018-12-17T03:45:42.323Z,20.13
2018-12-17T03:48:09.793Z,20.00
2018-12-17T03:50:37.248Z,19.80
2018-12-17T03:53:04.698Z,21.77
2018-12-17T03:55:32.255Z,18.10
2018-12-17T03:57:59.711Z,17.97
2018-12-17T04:00:27.216Z,16.80
2018-12-17T04:02:54.673Z,16.37
2018-12-17T04:05:22.210Z,17.37
2018-12-17T04:07:49.686Z,17.50
2018-12-17T04:10:17.136Z,17.77
2018-12-17T04:12:44.900Z,17.40
2018-12-17T04:15:12.360Z,16.87
2018-12-17T04:17:39.831Z,18.47
2018-12-17T04:20:07.360Z,18.93
2018-12-17T04:22:34.808Z,18.60
2018-12-17T04:25:02.275Z,25.33
2018-12-17T04:27:29.755Z,17.57
2018-12-17T04:29:57.220Z,16.80
2018-12-17T04:32:24.758Z,17.70
2018-12-17T04:34:52.224Z,25.50
2018-12-17T04:37:19.673Z,19.23
2018-12-17T04:39:47.154Z,18.17
2018-12-17T04:42:14.610Z,18.73
2018-12-17T04:44:42.124Z,21.00
2018-12-17T04:47:09.645Z,21.50
2018-12-17T04:49:37.101Z,20.77
2018-12-17T04:52:04.612Z,16.10
2018-12-17T04:54:32.286Z,17.60
2018-12-17T04:56:59.772Z,15.93
2018-12-17T04:59:27.227Z,15.87
2018-12-17T05:01:54.726Z,16.50
2018-12-17T05:04:22.210Z,15.60
2018-12-17T05:06:49.735Z,15.43
2018-12-17T05:09:17.203Z,15.80
2018-12-17T05:11:44.713Z,15.37
2018-12-17T05:14:12.199Z,15.70
2018-12-17T05:16:39.691Z,16.77
2018-12-17T05:19:07.287Z,15.80
2018-12-17T05:21:34.808Z,16.80
2018-12-17T05:24:02.337Z,18.87
2018-12-17T05:26:29.836Z,17.53
2018-12-17T05:28:57.324Z,14.90
2018-12-17T05:31:24.869Z,16.60
2018-12-17T05:33:52.379Z,15.30
2018-12-17T05:36:19.866Z,15.50
2018-12-17T05:38:47.317Z,15.10
2018-12-17T05:41:14.813Z,15.63
2018-12-17T05:43:42.270Z,15.40
2018-12-17T05:46:09.834Z,16.57
2018-12-17T05:48:37.306Z,16.40
2018-12-17T05:51:04.885Z,17.50
2018-12-17T05:53:42.035Z,14.97
2018-12-17T05:56:09.545Z,16.80
2018-12-17T05:58:37.012Z,17.23
2018-12-17T06:01:04.480Z,16.27
2018-12-17T06:03:31.928Z,15.80
2018-12-17T06:05:59.417Z,16.17
2018-12-17T06:08:26.915Z,15.20
2018-12-17T06:10:54.458Z,14.63
2018-12-17T06:13:21.922Z,16.47
2018-12-17T06:15:49.466Z,17.50
2018-12-17T06:18:16.962Z,17.00
2018-12-17T06:20:45.104Z,16.73
2018-12-17T06:23:12.578Z,16.13
2018-12-17T06:25:40.065Z,17.97
2018-12-17T06:28:07.535Z,19.33
2018-12-17T06:30:35.058Z,19.50
2018-12-17T06:33:02.532Z,18.13
2018-12-17T06:35:31.010Z,17.03
2018-12-17T06:37:58.584Z,17.60
2018-12-17T06:40:26.055Z,17.10
2018-12-17T06:42:53.543Z,19.53
2018-12-17T06:45:21.090Z,19.77
2018-12-17T06:47:48.608Z,17.60
2018-12-17T06:50:16.077Z,16.80
2018-12-17T06:52:43.552Z,18.17
2018-12-17T06:55:11.072Z,17.47
2018-12-17T06:57:38.620Z,16.87
2018-12-17T07:00:06.328Z,16.70
2018-12-17T07:02:33.818Z,19.03
2018-12-17T07:05:01.297Z,15.43
2018-12-17T07:07:28.777Z,16.20
2018-12-17T07:09:56.231Z,18.23
2018-12-17T07:12:23.710Z,15.87
2018-12-17T07:14:51.160Z,15.70
2018-12-17T07:17:18.627Z,16.17
2018-12-17T07:19:46.083Z,14.57
2018-12-17T07:22:13.581Z,16.97
2018-12-17T07:24:41.145Z,15.57
2018-12-17T07:27:08.649Z,14.90
2018-12-17T07:29:37.034Z,16.03
2018-12-17T07:32:04.646Z,15.73
2018-12-17T07:34:32.480Z,16.60
2018-12-17T07:37:00.127Z,16.00
2018-12-17T07:39:28.233Z,15.93
2018-12-17T07:41:55.758Z,16.20
2018-12-17T07:44:23.333Z,16.50
2018-12-17T07:46:50.825Z,16.93
2018-12-17T07:49:18.295Z,15.07
2018-12-17T07:51:46.784Z,17.00
2018-12-17T07:54:14.259Z,16.93
2018-12-17T07:56:42.473Z,18.17
2018-12-17T07:59:09.994Z,16.43
2018-12-17T08:01:37.611Z,16.50
2018-12-17T08:04:05.108Z,19.63
2018-12-17T08:06:32.615Z,28.20
2018-12-17T08:09:00.109Z,27.03
2018-12-17T08:11:27.580Z,27.47
2018-12-17T08:13:55.059Z,30.40
2018-12-17T08:16:22.534Z,30.30
2018-12-17T08:18:50.039Z,34.03
2018-12-17T08:21:17.505Z,35.10
2018-12-17T08:23:45.018Z,35.80
2018-12-17T08:26:12.498Z,35.53
2018-12-17T08:28:40.008Z,42.00
2018-12-17T08:31:07.516Z,46.73
2018-12-17T08:33:34.999Z,50.57
2018-12-17T08:36:02.452Z,44.33
2018-12-17T08:38:30.006Z,42.90
2018-12-17T08:40:57.600Z,42.07
2018-12-17T08:43:25.095Z,71.97
2018-12-17T08:45:52.616Z,52.10
2018-12-17T08:48:20.110Z,37.03
2018-12-17T08:50:47.728Z,36.33
2018-12-17T08:53:15.373Z,39.10
2018-12-17T08:55:42.967Z,31.47
2018-12-17T08:58:10.537Z,32.87
2018-12-17T09:00:39.025Z,35.43
2018-12-17T09:03:06.520Z,38.07
2018-12-17T09:05:34.023Z,39.07
2018-12-17T09:08:01.533Z,41.20
2018-12-17T09:10:28.996Z,40.73
2018-12-17T09:12:56.528Z,37.60
2018-12-17T09:15:23.993Z,32.00
2018-12-17T09:17:51.480Z,31.67
2018-12-17T09:20:18.999Z,26.63
2018-12-17T09:22:46.485Z,21.80
2018-12-17T09:25:13.959Z,19.07
2018-12-17T09:27:41.460Z,18.57
2018-12-17T09:30:09.066Z,17.57
2018-12-17T09:32:36.540Z,18.90
2018-12-17T09:35:04.519Z,18.00
2018-12-17T09:37:32.051Z,18.07
2018-12-17T09:39:59.579Z,16.63
2018-12-17T09:42:27.136Z,17.80
2018-12-17T09:44:54.613Z,15.73
2018-12-17T09:47:22.166Z,16.47
2018-12-17T09:49:49.700Z,17.30
2018-12-17T09:52:17.299Z,15.40
2018-12-17T09:54:44.791Z,16.60
2018-12-17T09:57:12.403Z,15.10
2018-12-17T09:59:39.949Z,15.30
2018-12-17T10:02:07.433Z,16.30
2018-12-17T10:04:34.908Z,16.13
2018-12-17T10:07:02.385Z,15.47
2018-12-17T10:09:29.880Z,16.60
2018-12-17T10:11:57.394Z,16.00
2018-12-17T10:14:25.024Z,17.07
2018-12-17T10:16:52.492Z,15.93
2018-12-17T10:19:20.135Z,15.23
2018-12-17T10:21:47.576Z,15.80
2018-12-17T10:24:15.170Z,15.10
2018-12-17T10:26:42.703Z,16.90
2018-12-17T10:29:10.214Z,15.23
2018-12-17T10:31:37.792Z,13.77
2018-12-17T10:34:05.368Z,14.10
2018-12-17T10:36:32.842Z,13.73
2018-12-17T10:39:00.345Z,13.07
2018-12-17T10:41:27.796Z,13.03
2018-12-17T10:43:55.394Z,13.00
2018-12-17T10:46:22.863Z,12.93
2018-12-17T10:48:50.346Z,12.23
2018-12-17T10:51:17.896Z,14.10
2018-12-17T10:53:45.453Z,13.37
2018-12-17T10:56:12.920Z,12.40
2018-12-17T10:58:40.494Z,12.30
2018-12-17T11:01:13.750Z,12.27
2018-12-17T11:03:42.314Z,12.30
2018-12-17T11:06:10.348Z,13.00
2018-12-17T11:08:37.930Z,12.27
2018-12-17T11:11:05.449Z,11.77
2018-12-17T11:13:32.938Z,12.87
2018-12-17T11:16:00.420Z,13.00
2018-12-17T11:18:27.902Z,13.57
2018-12-17T11:20:55.444Z,13.27
2018-12-17T11:23:22.950Z,13.73
2018-12-17T11:25:50.433Z,13.90
2018-12-17T11:28:18.791Z,16.87
2018-12-17T11:30:46.713Z,21.10
2018-12-17T11:33:14.454Z,25.37
2018-12-17T11:35:42.141Z,21.90
2018-12-17T11:38:09.908Z,27.43
2018-12-17T11:40:37.423Z,25.40
2018-12-17T11:43:04.896Z,19.77
2018-12-17T11:45:32.599Z,16.50
2018-12-17T11:48:00.072Z,16.93
2018-12-17T11:50:27.529Z,15.43
2018-12-17T11:52:55.059Z,15.53
2018-12-17T11:55:22.570Z,17.77
2018-12-17T11:57:52.830Z,17.47
2018-12-17T12:00:21.100Z,21.53
2018-12-17T12:02:48.577Z,20.60
2018-12-17T12:05:16.104Z,29.23
2018-12-17T12:07:43.585Z,18.60
2018-12-17T12:10:11.149Z,18.10
2018-12-17T12:12:38.642Z,17.73
2018-12-17T12:15:06.285Z,16.83
2018-12-17T12:17:33.742Z,16.10
2018-12-17T12:20:01.239Z,15.00
2018-12-17T12:22:28.718Z,14.40
2018-12-17T12:24:56.211Z,15.13
2018-12-17T12:27:23.995Z,19.87
2018-12-17T12:29:51.767Z,17.50
2018-12-17T12:32:19.359Z,17.57
2018-12-17T12:34:46.844Z,16.20
2018-12-17T12:37:14.332Z,17.70
2018-12-17T12:39:41.831Z,14.47
2018-12-17T12:42:09.299Z,13.03
2018-12-17T12:44:36.804Z,13.40
2018-12-17T12:47:04.440Z,21.50
2018-12-17T12:49:31.985Z,15.23
2018-12-17T12:51:59.448Z,15.97
2018-12-17T12:54:26.987Z,17.10
2018-12-17T12:56:54.452Z,14.83
2018-12-17T12:59:22.108Z,15.73
2018-12-17T13:01:49.576Z,16.03
2018-12-17T13:04:17.150Z,15.53
2018-12-17T13:06:44.639Z,17.23
2018-12-17T13:09:12.138Z,16.03
2018-12-17T13:11:39.600Z,15.50
2018-12-17T13:14:07.081Z,15.17
2018-12-17T13:16:34.541Z,16.33
2018-12-17T13:19:02.151Z,14.47
2018-12-17T13:21:29.625Z,14.33
2018-12-17T13:23:57.138Z,15.53
2018-12-17T13:26:24.698Z,11.43
2018-12-17T13:28:52.225Z,13.20
2018-12-17T13:31:19.708Z,13.27
2018-12-17T13:33:47.201Z,13.57
2018-12-17T13:36:14.763Z,12.90
2018-12-17T13:38:42.473Z,15.03
2018-12-17T13:41:09.996Z,15.20
2018-12-17T13:43:37.524Z,12.07
2018-12-17T13:46:05.034Z,12.50
2018-12-17T13:48:32.506Z,11.10
2018-12-17T13:51:05.787Z,10.50
2018-12-17T13:53:33.289Z,10.93
2018-12-17T13:56:00.780Z,10.47
2018-12-17T13:58:28.279Z,9.53
2018-12-17T14:00:55.756Z,11.10
2018-12-17T14:03:23.221Z,10.60
2018-12-17T14:05:50.706Z,9.67
2018-12-17T14:08:18.309Z,9.80
2018-12-17T14:10:53.405Z,9.93
2018-12-17T14:13:21.430Z,8.93
2018-12-17T14:15:51.167Z,10.00
2018-12-17T14:18:25.676Z,10.50
2018-12-17T14:20:59.236Z,9.30
2018-12-17T14:23:26.711Z,9.60
2018-12-17T14:25:54.288Z,8.90
2018-12-17T14:28:21.780Z,13.40
2018-12-17T14:30:49.343Z,8.70
2018-12-17T14:33:16.905Z,11.63
2018-12-17T14:35:50.089Z,8.50
2018-12-17T14:38:17.552Z,8.43
2018-12-17T14:40:45.047Z,9.20
2018-12-17T14:43:12.554Z,7.20
2018-12-17T14:45:40.052Z,8.40
2018-12-17T14:48:07.509Z,8.67
2018-12-17T14:50:35.105Z,7.10
2018-12-17T14:53:02.605Z,7.97
2018-12-17T14:55:30.115Z,7.07
2018-12-17T14:57:57.643Z,7.40
2018-12-17T15:00:25.199Z,6.83
2018-12-17T15:02:52.694Z,7.13
2018-12-17T15:05:20.226Z,7.57
2018-12-17T15:07:47.696Z,5.90
2018-12-17T15:10:15.235Z,6.60
2018-12-17T15:12:42.740Z,7.00
2018-12-17T15:15:10.602Z,5.20
2018-12-17T15:17:38.117Z,5.40
2018-12-17T15:20:08.614Z,5.23
2018-12-17T15:22:36.175Z,5.27
2018-12-17T15:25:05.905Z,5.10
2018-12-17T15:27:34.354Z,5.53
2018-12-17T15:30:01.806Z,5.10
2018-12-17T15:32:29.271Z,4.80
2018-12-17T15:34:56.760Z,3.53
2018-12-17T15:37:24.277Z,4.00
2018-12-17T15:39:51.840Z,3.00
2018-12-17T15:42:19.379Z,3.70
2018-12-17T15:44:46.895Z,3.20
2018-12-17T15:47:14.430Z,3.57
2018-12-17T15:49:42.417Z,4.40
2018-12-17T15:52:09.916Z,3.33
2018-12-17T15:54:37.526Z,4.47
2018-12-17T16:00:16.571Z,2.80
2018-12-17T16:02:44.263Z,5.40
2018-12-17T16:05:11.838Z,4.27
2018-12-17T16:07:39.333Z,4.87
2018-12-17T16:10:06.979Z,5.63
2018-12-17T16:12:34.567Z,10.93
2018-12-17T16:15:02.086Z,5.17
2018-12-17T16:17:29.579Z,8.07
2018-12-17T16:19:57.038Z,3.87
2018-12-17T16:22:24.503Z,4.90
2018-12-17T16:24:52.023Z,3.70
2018-12-17T16:27:19.675Z,4.40
2018-12-17T16:29:47.307Z,3.47
2018-12-17T16:32:14.747Z,2.77
2018-12-17T16:34:42.258Z,3.80
2018-12-17T16:37:09.721Z,5.77
2018-12-17T16:39:37.174Z,7.30
2018-12-17T16:42:04.643Z,12.10
2018-12-17T16:44:32.086Z,8.10
2018-12-17T16:46:59.589Z,6.70
2018-12-17T16:49:27.092Z,5.30
2018-12-17T16:51:54.559Z,15.97
2018-12-17T16:54:22.004Z,7.80
2018-12-17T16:56:49.466Z,4.17
2018-12-17T16:59:16.941Z,10.03
2018-12-17T17:01:44.395Z,6.53
2018-12-17T17:04:11.833Z,7.60
2018-12-17T17:06:39.286Z,6.27
2018-12-17T17:09:06.794Z,4.30
2018-12-17T17:11:34.277Z,4.00
2018-12-17T17:14:01.725Z,3.87
2018-12-17T17:16:29.186Z,4.03
2018-12-17T17:18:56.620Z,5.80
2018-12-17T17:21:24.067Z,6.33
2018-12-17T17:23:51.528Z,5.50
2018-12-17T17:26:19.005Z,3.90
2018-12-17T17:28:46.448Z,4.00
2018-12-17T17:31:13.891Z,4.17
2018-12-17T17:33:41.338Z,4.27
2018-12-17T17:36:08.809Z,4.90
2018-12-17T17:38:36.270Z,4.83
2018-12-17T17:41:03.707Z,6.70
2018-12-17T17:43:31.157Z,6.57
2018-12-17T17:45:58.607Z,7.33
2018-12-17T17:48:26.097Z,4.80
2018-12-17T17:50:53.595Z,4.20
2018-12-17T17:53:21.036Z,5.03
2018-12-17T17:55:48.518Z,5.00
2018-12-17T17:58:15.976Z,5.00
2018-12-17T18:00:43.416Z,5.20
2018-12-17T18:03:10.848Z,4.40
2018-12-17T18:05:38.333Z,4.83
2018-12-17T18:08:05.781Z,5.73
2018-12-17T18:10:33.247Z,5.03
2018-12-17T18:13:01.612Z,7.93
2018-12-17T18:15:29.074Z,6.80
2018-12-17T18:17:56.527Z,5.90
2018-12-17T18:20:23.988Z,5.37
2018-12-17T18:22:51.423Z,5.00
2018-12-17T18:25:18.884Z,7.70
2018-12-17T18:27:46.373Z,5.80
2018-12-17T18:30:13.807Z,5.50
2018-12-17T18:32:41.262Z,5.60
2018-12-17T18:35:08.705Z,7.07
2018-12-17T18:37:36.298Z,6.27
2018-12-17T18:40:04.543Z,5.97
2018-12-17T18:42:32.017Z,6.60
2018-12-17T18:44:59.491Z,8.70
2018-12-17T18:47:26.951Z,5.93
2018-12-17T18:49:54.396Z,5.77
2018-12-17T18:52:21.862Z,5.30
2018-12-17T18:54:51.332Z,4.70
2018-12-17T18:57:18.811Z,4.60
2018-12-17T18:59:46.253Z,4.87
2018-12-17T19:02:13.717Z,5.30
2018-12-17T19:04:41.639Z,5.03
2018-12-17T19:07:09.076Z,4.57
2018-12-17T19:09:36.504Z,5.23
2018-12-17T19:12:04.014Z,5.80
2018-12-17T19:14:31.475Z,5.20
2018-12-17T19:16:58.932Z,5.93
2018-12-17T19:19:26.390Z,6.30
2018-12-17T19:21:53.861Z,8.03
2018-12-17T19:24:21.360Z,10.77
2018-12-17T19:26:48.830Z,6.93
2018-12-17T19:29:16.303Z,6.73
2018-12-17T19:31:43.755Z,6.33
2018-12-17T19:34:11.184Z,6.00
2018-12-17T19:36:38.689Z,6.43
2018-12-17T19:39:06.384Z,9.57
2018-12-17T19:41:33.861Z,6.70
2018-12-17T19:44:01.306Z,8.57
2018-12-17T19:46:28.760Z,6.33
2018-12-17T19:48:56.210Z,5.63
2018-12-17T19:51:23.656Z,5.73
2018-12-17T19:53:51.104Z,8.30
2018-12-17T19:56:18.556Z,9.00
2018-12-17T19:58:46.010Z,8.67
2018-12-17T20:01:13.456Z,7.97
2018-12-17T20:03:40.962Z,8.00
2018-12-17T20:06:08.402Z,8.50
2018-12-17T20:08:35.847Z,7.63
2018-12-17T20:11:03.307Z,7.90
2018-12-17T20:13:30.755Z,7.90
2018-12-17T20:15:58.222Z,7.67
2018-12-17T20:18:25.664Z,7.00
2018-12-17T20:20:53.143Z,6.67
2018-12-17T20:23:20.582Z,7.30
2018-12-17T20:25:48.029Z,6.83
2018-12-17T20:28:15.497Z,6.30
2018-12-17T20:30:42.939Z,6.37
2018-12-17T20:33:10.412Z,6.23
2018-12-17T20:35:37.862Z,6.83
2018-12-17T20:38:05.330Z,6.70
2018-12-17T20:40:32.771Z,7.30
2018-12-17T20:43:00.227Z,7.13
2018-12-17T20:45:28.656Z,5.33
2018-12-17T20:47:56.099Z,6.47
2018-12-17T20:50:23.546Z,6.63
2018-12-17T20:52:51.034Z,7.03
2018-12-17T20:55:18.463Z,6.90
2018-12-17T20:57:45.948Z,7.70
2018-12-17T21:00:13.462Z,7.60
2018-12-17T21:02:40.922Z,6.20
2018-12-17T21:05:08.382Z,9.07
2018-12-17T21:07:35.851Z,7.50
2018-12-17T21:10:04.088Z,7.20
2018-12-17T21:12:31.537Z,7.97
2018-12-17T21:14:59.027Z,8.50
2018-12-17T21:17:27.334Z,10.63
2018-12-17T21:19:54.763Z,7.90
2018-12-17T21:22:22.219Z,8.20
2018-12-17T21:24:49.693Z,7.67
2018-12-17T21:27:17.146Z,7.50
2018-12-17T21:29:44.598Z,7.20
2018-12-17T21:32:12.125Z,9.37
2018-12-17T21:34:39.585Z,8.23
2018-12-17T21:37:07.069Z,7.57
2018-12-17T21:39:34.504Z,10.60
2018-12-17T21:42:01.999Z,9.63
2018-12-17T21:44:29.432Z,13.13
2018-12-17T21:46:56.892Z,11.80
2018-12-17T21:49:24.366Z,13.50
2018-12-17T21:51:51.841Z,11.50
2018-12-17T21:54:19.277Z,10.03
2018-12-17T21:56:46.739Z,26.83
2018-12-17T21:59:14.189Z,23.70
2018-12-17T22:01:41.652Z,22.00
2018-12-17T22:04:09.094Z,18.10
2018-12-17T22:06:36.558Z,18.63
2018-12-17T22:09:05.620Z,9.93
2018-12-17T22:11:33.074Z,9.23
2018-12-17T22:14:00.516Z,11.00
2018-12-17T22:16:27.969Z,7.30
2018-12-17T22:18:55.404Z,9.63
2018-12-17T22:21:22.855Z,6.73
2018-12-17T22:23:50.299Z,8.00
2018-12-17T22:26:17.748Z,6.97
2018-12-17T22:28:45.193Z,7.63
2018-12-17T22:31:12.628Z,8.40
2018-12-17T22:33:40.092Z,7.27
2018-12-17T22:36:07.541Z,7.00
2018-12-17T22:38:34.993Z,5.93
2018-12-17T22:41:02.447Z,6.40
2018-12-17T22:43:29.890Z,7.93
2018-12-17T22:45:57.334Z,7.10
2018-12-17T22:48:24.772Z,7.27
2018-12-17T22:50:52.210Z,7.47
2018-12-17T22:53:19.665Z,6.87
2018-12-17T22:55:47.111Z,7.27
2018-12-17T22:58:14.562Z,8.10
2018-12-17T23:00:43.309Z,6.90
2018-12-17T23:03:10.763Z,7.43
2018-12-17T23:05:38.204Z,6.80
2018-12-17T23:08:05.670Z,7.43
2018-12-17T23:10:45.056Z,9.50
2018-12-17T23:13:24.487Z,7.90
2018-12-17T23:16:03.854Z,11.53
2018-12-17T23:18:30.892Z,9.70
2018-12-17T23:20:58.332Z,8.93
2018-12-17T23:23:25.792Z,9.50
2018-12-17T23:25:53.298Z,10.07
2018-12-17T23:28:20.863Z,9.10
2018-12-17T23:30:48.319Z,9.30
2018-12-17T23:33:15.839Z,8.00
2018-12-17T23:35:43.272Z,21.40
2018-12-17T23:38:10.720Z,8.80
2018-12-17T23:40:38.180Z,8.53
2018-12-17T23:43:05.624Z,8.90
2018-12-17T23:45:33.078Z,10.40
2018-12-17T23:48:00.544Z,10.60
2018-12-17T23:50:28.004Z,10.33
2018-12-17T23:52:55.552Z,10.70
2018-12-17T23:55:23.196Z,9.60
2018-12-17T23:57:50.688Z,10.80
